createdAt,value
2022-09-26T00:00:09.161Z,88.10
2022-09-26T00:02:38.681Z,88.50
2022-09-26T00:05:05.602Z,87.60
2022-09-26T00:07:32.225Z,87.80
2022-09-26T00:09:58.818Z,87.90
2022-09-26T00:12:25.389Z,87.90
2022-09-26T00:14:51.974Z,87.80
2022-09-26T00:17:18.588Z,88.00
2022-09-26T00:19:45.176Z,88.20
2022-09-26T00:22:11.762Z,88.10
2022-09-26T00:24:38.387Z,87.40
2022-09-26T00:27:05.002Z,88.10
2022-09-26T00:29:31.589Z,87.70
2022-09-26T00:31:58.223Z,88.00
2022-09-26T00:34:24.953Z,88.40
2022-09-26T00:36:52.598Z,87.90
2022-09-26T00:39:19.465Z,87.90
2022-09-26T00:41:46.095Z,87.80
2022-09-26T00:44:31.166Z,87.20
2022-09-26T00:46:57.796Z,87.20
2022-09-26T00:49:25.938Z,87.50
2022-09-26T00:52:05.440Z,87.70
2022-09-26T00:54:34.821Z,87.70
2022-09-26T00:57:07.209Z,87.50
2022-09-26T00:59:37.028Z,87.20
2022-09-26T01:02:04.470Z,86.70
2022-09-26T01:04:34.063Z,87.10
2022-09-26T01:07:01.821Z,87.20
2022-09-26T01:09:29.111Z,86.60
2022-09-26T01:11:56.686Z,86.90
2022-09-26T01:14:24.470Z,87.00
2022-09-26T01:16:53.017Z,86.90
2022-09-26T01:19:38.038Z,87.00
2022-09-26T01:22:08.257Z,86.80
2022-09-26T01:24:37.955Z,86.70
2022-09-26T01:27:04.555Z,87.40
2022-09-26T01:29:31.121Z,87.40
2022-09-26T01:32:26.581Z,87.80
2022-09-26T01:35:06.759Z,87.80
2022-09-26T01:37:41.790Z,87.40
2022-09-26T01:40:27.209Z,86.80
2022-09-26T01:43:02.316Z,87.20
2022-09-26T01:45:37.879Z,87.00
2022-09-26T01:48:18.411Z,87.50
2022-09-26T01:50:49.645Z,86.60
2022-09-26T01:53:19.617Z,86.70
2022-09-26T01:55:53.481Z,87.10
2022-09-26T01:58:38.910Z,86.90
2022-09-26T02:01:10.624Z,86.50
2022-09-26T02:03:39.974Z,86.80
2022-09-26T02:06:11.498Z,86.60
2022-09-26T02:08:42.373Z,86.60
2022-09-26T02:11:12.340Z,86.60
2022-09-26T02:13:55.572Z,86.80
2022-09-26T02:16:26.085Z,86.20
2022-09-26T02:19:04.302Z,87.20
2022-09-26T02:21:31.751Z,87.20
2022-09-26T02:23:58.598Z,87.10
2022-09-26T02:26:25.582Z,87.50
2022-09-26T02:28:52.337Z,87.40
2022-09-26T02:31:22.832Z,87.80
2022-09-26T02:33:50.187Z,87.30
2022-09-26T02:36:18.368Z,87.20
2022-09-26T02:38:45.116Z,87.30
2022-09-26T02:41:49.867Z,87.00
2022-09-26T02:44:29.024Z,86.80
2022-09-26T02:47:14.262Z,87.10
2022-09-26T02:50:00.286Z,86.50
2022-09-26T02:52:46.192Z,86.90
2022-09-26T02:55:18.650Z,87.40
2022-09-26T02:57:51.771Z,87.50
2022-09-26T03:00:31.697Z,87.50
2022-09-26T03:03:07.871Z,87.40
2022-09-26T03:05:36.153Z,87.20
2022-09-26T03:08:03.043Z,86.80
2022-09-26T03:10:31.089Z,87.30
2022-09-26T03:13:00.944Z,87.70
2022-09-26T03:15:29.293Z,87.60
2022-09-26T03:17:56.732Z,87.60
2022-09-26T03:20:24.671Z,88.20
2022-09-26T03:22:53.845Z,88.50
2022-09-26T03:25:22.369Z,88.40
2022-09-26T03:28:02.076Z,88.10
2022-09-26T03:30:29.828Z,88.40
2022-09-26T03:33:19.459Z,88.50
2022-09-26T03:35:46.916Z,88.00
2022-09-26T03:38:14.659Z,88.30
2022-09-26T03:40:48.081Z,88.40
2022-09-26T03:43:43.854Z,88.80
2022-09-26T03:46:12.109Z,88.20
2022-09-26T03:48:39.054Z,88.40
2022-09-26T03:51:10.125Z,87.80
2022-09-26T03:53:39.685Z,87.60
2022-09-26T03:56:10.636Z,88.00
2022-09-26T03:58:37.326Z,88.00
2022-09-26T04:01:08.826Z,88.10
2022-09-26T04:03:36.094Z,88.00
2022-09-26T04:06:03.339Z,88.30
2022-09-26T04:08:30.376Z,88.10
2022-09-26T04:11:01.491Z,87.90
2022-09-26T04:13:50.256Z,88.00
2022-09-26T04:16:15.646Z,88.20
2022-09-26T04:18:48.384Z,87.70
2022-09-26T04:21:15.666Z,88.10
2022-09-26T04:23:43.145Z,88.20
2022-09-26T04:26:20.154Z,87.50
2022-09-26T04:28:50.971Z,87.20
2022-09-26T04:31:18.503Z,87.20
2022-09-26T04:33:51.718Z,87.10
2022-09-26T04:36:18.329Z,87.30
2022-09-26T04:38:45.974Z,87.50
2022-09-26T04:41:15.034Z,87.30
2022-09-26T04:43:41.906Z,87.00
2022-09-26T04:46:15.957Z,86.90
2022-09-26T04:48:46.929Z,87.80
2022-09-26T04:51:19.704Z,87.80
2022-09-26T04:53:48.144Z,87.30
2022-09-26T04:56:19.116Z,87.10
2022-09-26T04:58:45.743Z,86.90
2022-09-26T05:01:14.009Z,86.10
2022-09-26T05:03:56.245Z,86.70
2022-09-26T05:06:23.143Z,86.50
2022-09-26T05:08:50.765Z,86.30
2022-09-26T05:11:22.952Z,86.00
2022-09-26T05:13:53.700Z,86.00
2022-09-26T05:16:21.463Z,85.80
2022-09-26T05:18:51.611Z,86.20
2022-09-26T05:21:18.316Z,86.40
2022-09-26T05:24:03.635Z,86.30
2022-09-26T05:26:37.913Z,86.10
2022-09-26T05:29:08.364Z,85.70
2022-09-26T05:32:12.044Z,85.70
2022-09-26T05:34:39.062Z,85.80
2022-09-26T05:37:07.243Z,85.50
2022-09-26T05:39:52.673Z,85.90
2022-09-26T05:42:20.372Z,86.00
2022-09-26T05:44:48.209Z,86.10
2022-09-26T05:47:16.664Z,85.50
2022-09-26T05:49:43.540Z,85.30
2022-09-26T05:52:14.594Z,85.20
2022-09-26T05:54:41.185Z,85.10
2022-09-26T05:57:27.731Z,84.70
2022-09-26T05:59:55.608Z,83.80
2022-09-26T06:02:22.241Z,84.50
2022-09-26T06:05:09.226Z,84.00
2022-09-26T06:07:54.263Z,83.80
2022-09-26T06:10:39.610Z,83.50
2022-09-26T06:13:07.664Z,83.70
2022-09-26T06:15:43.222Z,83.70
2022-09-26T06:18:09.858Z,84.00
2022-09-26T06:20:36.533Z,84.20
2022-09-26T06:23:03.855Z,83.80
2022-09-26T06:25:31.676Z,82.80
2022-09-26T06:28:01.050Z,82.80
2022-09-26T06:30:29.518Z,83.40
2022-09-26T06:33:09.202Z,82.70
2022-09-26T06:36:01.446Z,82.70
2022-09-26T06:38:33.371Z,82.80
2022-09-26T06:41:00.218Z,82.90
2022-09-26T06:43:27.063Z,83.20
2022-09-26T06:46:09.522Z,83.70
2022-09-26T06:48:46.597Z,83.90
2022-09-26T06:51:21.357Z,84.30
2022-09-26T06:53:48.051Z,85.20
2022-09-26T06:56:19.269Z,85.30
2022-09-26T06:58:45.905Z,85.50
2022-09-26T07:01:15.143Z,86.10
2022-09-26T07:03:54.381Z,85.70
2022-09-26T07:06:38.153Z,83.90
2022-09-26T07:09:11.274Z,82.60
2022-09-26T07:12:12.863Z,82.20
2022-09-26T07:14:33.757Z,82.10
2022-09-26T07:17:08.313Z,82.40
2022-09-26T07:19:44.074Z,82.50
2022-09-26T07:22:30.638Z,82.60
2022-09-26T07:24:58.058Z,82.20
2022-09-26T07:27:25.136Z,82.80
2022-09-26T07:29:51.944Z,83.40
2022-09-26T07:32:20.529Z,82.90
2022-09-26T07:34:53.313Z,83.90
2022-09-26T07:37:20.042Z,84.60
2022-09-26T07:39:52.620Z,84.10
2022-09-26T07:42:21.667Z,83.40
2022-09-26T07:47:53.640Z,83.70
2022-09-26T07:50:54.044Z,81.10
2022-09-26T07:53:28.865Z,81.00
2022-09-26T07:56:27.735Z,80.20
2022-09-26T07:59:22.806Z,80.10
2022-09-26T08:01:58.529Z,80.40
2022-09-26T08:04:32.244Z,79.50
2022-09-26T08:06:59.694Z,80.70
2022-09-26T08:09:26.582Z,81.60
2022-09-26T08:12:11.571Z,81.50
2022-09-26T08:14:49.139Z,81.70
2022-09-26T08:17:20.156Z,82.70
2022-09-26T08:19:47.476Z,83.30
2022-09-26T08:22:14.518Z,81.50
2022-09-26T08:24:41.934Z,82.00
2022-09-26T08:27:19.976Z,82.00
2022-09-26T08:29:48.453Z,80.20
2022-09-26T08:32:16.382Z,82.40
2022-09-26T08:34:43.322Z,80.80
2022-09-26T08:37:40.194Z,82.10
2022-09-26T08:40:37.363Z,83.10
2022-09-26T08:43:52.785Z,83.70
2022-09-26T08:47:28.297Z,82.00
2022-09-26T08:50:23.247Z,82.30
2022-09-26T08:52:56.774Z,80.30
2022-09-26T08:55:32.800Z,78.70
2022-09-26T08:58:12.944Z,79.40
2022-09-26T09:00:39.664Z,79.20
2022-09-26T09:03:18.943Z,78.80
2022-09-26T09:05:48.661Z,78.90
2022-09-26T09:08:21.817Z,77.30
2022-09-26T09:11:14.441Z,77.30
2022-09-26T09:13:59.116Z,76.70
2022-09-26T09:16:57.019Z,76.30
2022-09-26T09:20:07.492Z,77.80
2022-09-26T09:23:14.098Z,77.80
2022-09-26T09:29:10.530Z,77.80
2022-09-26T09:31:41.357Z,77.50
2022-09-26T09:34:31.963Z,79.30
2022-09-26T09:37:02.453Z,78.30
2022-09-26T09:39:47.970Z,78.40
2022-09-26T09:42:24.607Z,78.60
2022-09-26T09:45:03.369Z,80.00
2022-09-26T09:47:35.555Z,77.80
2022-09-26T09:50:02.718Z,78.10
2022-09-26T09:52:40.755Z,79.10
2022-09-26T09:55:26.218Z,77.20
2022-09-26T09:58:05.650Z,77.30
2022-09-26T10:00:33.602Z,78.00
2022-09-26T10:03:17.809Z,77.90
2022-09-26T10:05:46.156Z,78.30
2022-09-26T10:08:31.261Z,78.00
2022-09-26T10:11:21.139Z,76.10
2022-09-26T10:14:01.206Z,77.60
2022-09-26T10:17:08.923Z,76.70
2022-09-26T10:19:41.320Z,76.50
2022-09-26T10:22:35.748Z,76.40
2022-09-26T10:25:15.844Z,75.50
2022-09-26T10:27:48.385Z,74.10
2022-09-26T10:30:21.258Z,72.70
2022-09-26T10:32:56.646Z,72.30
2022-09-26T10:35:43.169Z,75.00
2022-09-26T10:38:20.656Z,76.20
2022-09-26T10:40:53.303Z,75.70
2022-09-26T10:43:34.572Z,75.00
2022-09-26T10:46:13.431Z,73.90
2022-09-26T10:49:02.000Z,74.90
2022-09-26T10:51:56.842Z,73.30
2022-09-26T10:54:26.604Z,72.60
2022-09-26T10:56:59.264Z,72.40
2022-09-26T10:59:31.735Z,73.50
2022-09-26T11:01:59.277Z,71.50
2022-09-26T11:04:48.200Z,69.70
2022-09-26T11:07:37.798Z,70.40
2022-09-26T11:10:27.532Z,70.00
2022-09-26T11:13:05.020Z,71.20
2022-09-26T11:15:31.819Z,73.30
2022-09-26T11:18:00.077Z,72.90
2022-09-26T11:20:36.198Z,72.30
2022-09-26T11:23:22.444Z,68.00
2022-09-26T11:26:03.036Z,69.50
2022-09-26T11:28:40.234Z,66.90
2022-09-26T11:31:24.051Z,68.10
2022-09-26T11:34:04.711Z,67.70
2022-09-26T11:37:04.408Z,68.60
2022-09-26T11:39:45.062Z,69.30
2022-09-26T11:42:13.711Z,69.70
2022-09-26T11:44:43.567Z,70.10
2022-09-26T11:47:24.685Z,69.50
2022-09-26T11:50:08.056Z,68.10
2022-09-26T11:53:21.221Z,69.10
2022-09-26T11:56:07.176Z,68.40
2022-09-26T11:58:41.113Z,69.30
2022-09-26T12:01:16.910Z,67.60
2022-09-26T12:04:01.693Z,68.80
2022-09-26T12:06:45.988Z,69.00
2022-09-26T12:09:24.502Z,68.70
2022-09-26T12:12:00.432Z,67.90
2022-09-26T12:14:36.040Z,64.20
2022-09-26T12:17:05.666Z,64.60
2022-09-26T12:19:38.442Z,64.60
2022-09-26T12:22:28.449Z,66.40
2022-09-26T12:25:17.825Z,67.10
2022-09-26T12:28:08.330Z,68.30
2022-09-26T12:30:42.613Z,66.90
2022-09-26T12:33:27.982Z,66.70
2022-09-26T12:36:05.561Z,64.80
2022-09-26T12:38:44.393Z,63.10
2022-09-26T12:41:14.205Z,60.90
2022-09-26T12:43:50.988Z,62.00
2022-09-26T12:46:33.533Z,60.20
2022-09-26T12:49:25.254Z,62.40
2022-09-26T12:51:54.936Z,60.40
2022-09-26T12:54:37.137Z,59.80
2022-09-26T12:57:17.236Z,59.00
2022-09-26T12:59:53.339Z,60.20
2022-09-26T13:02:33.416Z,60.30
2022-09-26T13:05:18.717Z,61.90
2022-09-26T13:07:45.408Z,59.80
2022-09-26T13:10:32.106Z,59.20
2022-09-26T13:13:02.529Z,57.70
2022-09-26T13:15:35.418Z,58.50
2022-09-26T13:18:26.398Z,57.30
2022-09-26T13:20:56.268Z,59.00
2022-09-26T13:23:28.970Z,59.30
2022-09-26T13:26:04.636Z,58.10
2022-09-26T13:29:00.522Z,57.20
2022-09-26T13:31:34.226Z,58.40
2022-09-26T13:34:04.904Z,57.90
2022-09-26T13:36:32.453Z,56.30
2022-09-26T13:38:59.030Z,55.30
2022-09-26T13:41:44.364Z,56.10
2022-09-26T13:44:18.736Z,57.10
2022-09-26T13:46:52.343Z,52.50
2022-09-26T13:49:25.174Z,54.40
2022-09-26T13:52:10.102Z,53.80
2022-09-26T13:54:44.121Z,54.10
2022-09-26T13:57:32.694Z,53.30
2022-09-26T13:59:59.297Z,53.60
2022-09-26T14:02:29.129Z,53.50
2022-09-26T14:05:01.593Z,52.20
2022-09-26T14:07:56.033Z,50.20
2022-09-26T14:10:32.140Z,50.90
2022-09-26T14:13:11.014Z,51.90
2022-09-26T14:15:47.317Z,51.60
2022-09-26T14:18:15.323Z,52.40
2022-09-26T14:20:52.367Z,52.70
2022-09-26T14:23:33.369Z,51.10
2022-09-26T14:26:07.414Z,49.30
2022-09-26T14:28:35.714Z,46.70
2022-09-26T14:31:22.177Z,47.10
2022-09-26T14:33:49.692Z,46.50
2022-09-26T14:36:17.382Z,45.50
2022-09-26T14:38:47.630Z,43.40
2022-09-26T14:41:18.949Z,42.50
2022-09-26T14:43:46.381Z,41.40
2022-09-26T14:46:17.988Z,38.80
2022-09-26T14:48:44.833Z,38.00
2022-09-26T14:51:11.430Z,39.30
2022-09-26T14:53:42.133Z,41.50
2022-09-26T19:14:20.697Z,69.90
2022-09-26T19:16:48.145Z,70.40
2022-09-26T19:19:15.097Z,70.90
2022-09-26T19:21:50.825Z,70.40
2022-09-26T19:24:20.758Z,71.30
2022-09-26T19:26:49.667Z,71.90
2022-09-26T19:29:20.667Z,71.90
2022-09-26T19:31:47.598Z,72.00
2022-09-26T19:34:14.747Z,72.50
2022-09-26T19:36:41.440Z,72.70
2022-09-26T19:39:14.728Z,72.30
2022-09-26T19:44:08.456Z,70.90
2022-09-26T19:46:36.141Z,71.40
2022-09-26T19:49:03.308Z,71.00
2022-09-26T19:51:31.445Z,70.80
2022-09-26T19:54:00.488Z,70.60
2022-09-26T19:56:29.269Z,70.20
2022-09-26T19:58:56.577Z,69.20
2022-09-26T20:03:52.227Z,67.40
2022-09-26T20:06:21.201Z,67.10
2022-09-26T20:08:48.572Z,67.90
2022-09-26T20:11:17.217Z,66.40
2022-09-26T20:14:03.107Z,66.70
2022-09-26T20:16:32.971Z,66.20
2022-09-26T20:19:00.311Z,66.40
2022-09-26T20:21:28.356Z,66.20
2022-09-26T20:23:56.116Z,66.30
2022-09-26T20:26:22.945Z,66.00
2022-09-26T20:28:49.530Z,65.40
2022-09-26T20:31:23.339Z,66.10
2022-09-26T20:33:51.124Z,65.40
2022-09-26T20:36:22.870Z,65.40
2022-09-26T20:38:51.166Z,65.10
2022-09-26T20:41:30.772Z,65.00
2022-09-26T20:44:01.824Z,65.00
2022-09-26T20:46:30.339Z,65.60
2022-09-26T20:48:57.402Z,65.40
2022-09-26T20:51:26.311Z,65.00
2022-09-26T20:53:53.007Z,64.80
2022-09-26T20:56:21.186Z,64.00
2022-09-26T20:58:48.002Z,63.20
2022-09-26T21:01:15.641Z,63.40
2022-09-26T21:03:44.474Z,63.80
2022-09-26T21:06:19.479Z,63.90
2022-09-26T21:08:46.536Z,64.40
2022-09-26T21:11:19.468Z,63.70
2022-09-26T21:13:46.796Z,63.70
2022-09-26T21:18:42.830Z,63.40
2022-09-26T21:23:47.698Z,62.90
2022-09-26T21:26:18.078Z,64.20
2022-09-26T21:28:44.806Z,63.20
2022-09-26T21:31:18.879Z,63.60
2022-09-26T21:33:45.792Z,63.70
2022-09-26T21:36:12.559Z,63.60
2022-09-26T21:38:43.036Z,63.20
2022-09-26T21:41:10.721Z,63.20
2022-09-26T21:43:38.988Z,63.40
2022-09-26T21:46:06.137Z,63.30
2022-09-26T21:48:33.608Z,62.90
2022-09-26T21:51:02.314Z,63.20
2022-09-26T21:53:31.116Z,63.70
2022-09-26T21:56:04.982Z,62.80
2022-09-26T21:58:35.825Z,63.70
2022-09-26T22:01:02.479Z,63.70
2022-09-26T22:03:29.117Z,63.80
2022-09-26T22:05:55.708Z,64.10
2022-09-26T22:08:22.287Z,64.40
2022-09-26T22:10:51.497Z,65.10
2022-09-26T22:13:18.083Z,64.70
2022-09-26T22:15:44.674Z,64.50
2022-09-26T22:18:11.241Z,63.80
2022-09-26T22:20:37.820Z,63.20
2022-09-26T22:23:04.410Z,63.40
2022-09-26T22:25:31.284Z,63.20
2022-09-26T22:27:57.875Z,63.50
2022-09-26T22:30:24.500Z,63.30
2022-09-26T22:32:51.120Z,62.70
2022-09-26T22:35:18.466Z,62.70
2022-09-26T22:37:45.748Z,63.10
2022-09-26T22:40:12.462Z,63.30
2022-09-26T22:42:39.163Z,62.90
2022-09-26T22:45:05.905Z,62.90
2022-09-26T22:47:32.486Z,63.20
2022-09-26T22:49:59.084Z,64.00
2022-09-26T22:52:25.662Z,64.30
2022-09-26T22:54:52.236Z,64.40
2022-09-26T22:57:18.932Z,64.70
2022-09-26T22:59:45.551Z,65.30
2022-09-26T23:02:12.246Z,65.10
2022-09-26T23:04:47.990Z,65.50
2022-09-26T23:07:16.286Z,65.80
2022-09-26T23:09:42.909Z,65.80
2022-09-26T23:12:10.111Z,66.00
2022-09-26T23:16:17.491Z,67.00
2022-09-26T23:18:44.657Z,67.30
2022-09-26T23:21:12.173Z,68.20
2022-09-26T23:23:39.118Z,68.60
2022-09-26T23:26:06.397Z,69.30
2022-09-26T23:28:33.649Z,69.60
2022-09-26T23:31:07.197Z,70.50
2022-09-26T23:33:33.905Z,71.20
2022-09-26T23:36:00.852Z,71.90
2022-09-26T23:38:27.539Z,71.70
2022-09-26T23:45:49.272Z,71.80
2022-09-26T23:48:16.109Z,73.20
2022-09-26T23:50:43.821Z,73.70
2022-09-26T23:53:10.872Z,74.10
2022-09-26T23:55:37.499Z,74.10
2022-09-26T23:58:04.190Z,74.40
